createdAt,value
2022-08-07T00:00:34.602Z,100028.60
2022-08-07T00:03:11.405Z,100038.00
2022-08-07T00:05:40.533Z,100035.20
2022-08-07T00:08:17.709Z,100038.80
2022-08-07T00:10:57.635Z,100035.00
2022-08-07T00:13:31.081Z,100036.60
2022-08-07T00:16:05.759Z,100038.80
2022-08-07T00:18:41.159Z,100039.20
2022-08-07T00:21:57.430Z,100045.00
2022-08-07T00:24:08.442Z,100039.60
2022-08-07T00:26:58.679Z,100041.00
2022-08-07T00:29:31.328Z,100044.40
2022-08-07T00:32:11.900Z,100043.20
2022-08-07T00:34:43.948Z,100041.80
2022-08-07T00:37:18.238Z,100038.00
2022-08-07T00:39:57.166Z,100041.40
2022-08-07T00:42:29.771Z,100036.20
2022-08-07T00:45:01.114Z,100036.00
2022-08-07T00:48:07.548Z,100037.60
2022-08-07T00:50:50.694Z,100037.60
2022-08-07T00:53:38.473Z,100032.80
2022-08-07T00:56:30.375Z,100043.80
2022-08-07T00:59:07.230Z,100045.80
2022-08-07T01:01:41.362Z,100048.40
2022-08-07T01:04:24.954Z,100048.80
2022-08-07T01:06:58.097Z,100042.80
2022-08-07T01:10:05.124Z,100048.80
2022-08-07T01:12:29.779Z,100053.60
2022-08-07T01:15:06.877Z,100060.80
2022-08-07T01:17:45.659Z,100049.40
2022-08-07T01:20:17.475Z,100056.00
2022-08-07T01:23:00.638Z,100063.40
2022-08-07T01:25:55.798Z,100060.40
2022-08-07T01:28:34.923Z,100061.20
2022-08-07T01:31:06.001Z,100057.80
2022-08-07T01:33:53.782Z,100055.20
2022-08-07T01:36:33.231Z,100049.40
2022-08-07T01:39:16.968Z,100041.80
2022-08-07T01:42:37.208Z,100047.60
2022-08-07T01:44:52.914Z,100047.00
2022-08-07T01:48:19.534Z,100052.20
2022-08-07T01:50:13.107Z,100058.40
2022-08-07T01:52:54.022Z,100050.00
2022-08-07T01:55:27.889Z,100051.00
2022-08-07T01:58:05.901Z,100050.40
2022-08-07T02:01:09.908Z,100044.00
2022-08-07T02:03:50.436Z,100044.80
2022-08-07T02:06:31.344Z,100043.40
2022-08-07T02:09:33.477Z,100047.00
2022-08-07T02:12:18.929Z,100053.40
2022-08-07T02:14:56.925Z,100048.60
2022-08-07T02:17:37.580Z,100052.20
2022-08-07T02:20:19.887Z,100052.40
2022-08-07T02:23:02.140Z,100055.20
2022-08-07T02:26:31.542Z,100055.40
2022-08-07T02:28:27.824Z,100056.20
2022-08-07T02:31:18.725Z,100057.80
2022-08-07T02:34:02.791Z,100063.80
2022-08-07T02:36:41.263Z,100069.40
2022-08-07T02:39:43.611Z,100067.80
2022-08-07T02:42:19.596Z,100067.60
2022-08-07T02:44:53.063Z,100077.40
2022-08-07T02:47:23.943Z,100077.40
2022-08-07T02:50:11.679Z,100074.20
2022-08-07T02:53:03.356Z,100081.60
2022-08-07T02:56:02.286Z,100086.20
2022-08-07T02:58:33.932Z,100082.40
2022-08-07T03:01:06.067Z,100083.00
2022-08-07T03:03:49.849Z,100083.40
2022-08-07T03:06:33.056Z,100083.40
2022-08-07T03:09:11.311Z,100083.20
2022-08-07T03:11:51.501Z,100078.60
2022-08-07T03:14:27.879Z,100077.00
2022-08-07T03:16:59.681Z,100082.60
2022-08-07T03:19:37.642Z,100081.60
2022-08-07T03:22:08.493Z,100089.80
2022-08-07T03:24:51.593Z,100085.20
2022-08-07T03:27:30.356Z,100082.40
2022-08-07T03:30:11.474Z,100087.80
2022-08-07T03:32:49.162Z,100092.20
2022-08-07T03:35:37.896Z,100092.60
2022-08-07T03:38:21.302Z,100090.60
2022-08-07T03:41:04.477Z,100092.80
2022-08-07T03:43:37.850Z,100093.20
2022-08-07T03:46:18.392Z,100087.20
2022-08-07T03:49:02.855Z,100087.40
2022-08-07T03:51:47.286Z,100098.20
2022-08-07T03:54:35.364Z,100090.60
2022-08-07T03:57:10.901Z,100094.80
2022-08-07T04:00:12.078Z,100098.80
2022-08-07T04:02:51.515Z,100088.40
2022-08-07T04:05:40.681Z,100089.00
2022-08-07T04:08:21.188Z,100095.40
2022-08-07T04:11:28.853Z,100096.20
2022-08-07T04:14:10.607Z,100099.20
2022-08-07T04:16:38.094Z,100097.00
2022-08-07T04:19:15.339Z,100099.20
2022-08-07T04:22:04.839Z,100095.60
2022-08-07T04:24:46.643Z,100098.40
2022-08-07T04:27:25.718Z,100099.80
2022-08-07T04:30:02.689Z,100096.00
2022-08-07T04:32:58.481Z,100096.80
2022-08-07T04:35:37.781Z,100094.00
2022-08-07T04:38:14.310Z,100092.20
2022-08-07T04:40:52.616Z,100086.60
2022-08-07T04:44:09.922Z,100087.00
2022-08-07T04:46:59.481Z,100088.80
2022-08-07T04:50:24.659Z,100092.20
2022-08-07T04:54:06.533Z,100094.60
2022-08-07T04:58:14.767Z,100091.60
2022-08-07T05:01:13.870Z,100093.60
2022-08-07T05:04:17.302Z,100096.80
2022-08-07T05:07:20.495Z,100098.20
2022-08-07T05:10:08.188Z,100100.60
2022-08-07T05:14:53.042Z,100106.40
2022-08-07T05:16:11.256Z,100122.80
2022-08-07T05:18:54.673Z,100120.60
2022-08-07T05:22:00.235Z,100128.60
2022-08-07T05:24:30.411Z,100136.80
2022-08-07T05:28:03.289Z,100134.00
2022-08-07T05:30:32.738Z,100134.40
2022-08-07T05:33:11.446Z,100136.80
2022-08-07T05:35:42.554Z,100129.80
2022-08-07T05:39:00.838Z,100133.20
2022-08-07T05:41:14.457Z,100136.60
2022-08-07T05:44:11.828Z,100139.20
2022-08-07T05:46:54.235Z,100139.20
2022-08-07T05:49:41.140Z,100138.60
2022-08-07T05:52:13.701Z,100136.00
2022-08-07T05:54:55.493Z,100131.20
2022-08-07T05:57:34.605Z,100129.60
2022-08-07T06:00:16.317Z,100133.80
2022-08-07T06:03:03.884Z,100134.80
2022-08-07T06:05:40.603Z,100138.40
2022-08-07T06:08:30.865Z,100136.00
2022-08-07T06:11:09.214Z,100137.40
2022-08-07T06:14:11.568Z,100146.40
2022-08-07T06:16:35.679Z,100144.00
2022-08-07T06:19:06.499Z,100147.20
2022-08-07T06:22:15.027Z,100142.60
2022-08-07T06:24:57.777Z,100146.40
2022-08-07T06:28:00.636Z,100149.20
2022-08-07T06:30:35.628Z,100158.00
2022-08-07T06:33:16.907Z,100157.80
2022-08-07T06:36:13.264Z,100160.40
2022-08-07T06:38:59.012Z,100158.60
2022-08-07T06:42:05.370Z,100163.60
2022-08-07T06:45:12.821Z,100166.40
2022-08-07T06:47:58.662Z,100170.20
2022-08-07T06:50:37.799Z,100162.60
2022-08-07T06:53:18.803Z,100163.80
2022-08-07T06:56:15.399Z,100166.00
2022-08-07T07:00:13.058Z,100174.00
2022-08-07T07:01:48.657Z,100168.00
2022-08-07T07:04:28.418Z,100163.20
2022-08-07T07:07:58.333Z,100166.40
2022-08-07T07:10:03.228Z,100168.80
2022-08-07T07:12:48.513Z,100169.20
2022-08-07T07:15:32.606Z,100165.40
2022-08-07T07:18:37.662Z,100166.60
2022-08-07T07:22:05.347Z,100163.60
2022-08-07T07:24:22.970Z,100165.00
2022-08-07T07:26:54.312Z,100159.60
2022-08-07T07:29:56.806Z,100166.00
2022-08-07T07:32:22.097Z,100160.60
2022-08-07T07:34:59.167Z,100154.60
2022-08-07T07:37:58.947Z,100152.80
2022-08-07T07:40:21.652Z,100146.80
2022-08-07T07:42:56.267Z,100154.00
2022-08-07T07:46:37.635Z,100155.20
2022-08-07T07:48:35.196Z,100150.60
2022-08-07T07:51:08.077Z,100152.60
2022-08-07T07:53:51.343Z,100158.00
2022-08-07T07:56:30.680Z,100156.80
2022-08-07T07:59:06.052Z,100154.20
2022-08-07T08:02:03.465Z,100156.60
2022-08-07T08:04:28.718Z,100163.00
2022-08-07T08:07:00.723Z,100162.80
2022-08-07T08:09:52.407Z,100162.40
2022-08-07T08:12:51.583Z,100160.20
2022-08-07T08:15:24.847Z,100160.20
2022-08-07T08:17:58.770Z,100161.00
2022-08-07T08:20:50.808Z,100161.40
2022-08-07T08:23:38.973Z,100158.00
2022-08-07T08:26:31.113Z,100160.60
2022-08-07T08:29:03.512Z,100156.00
2022-08-07T08:32:18.133Z,100153.80
2022-08-07T08:34:33.716Z,100161.20
2022-08-07T08:37:09.889Z,100152.40
2022-08-07T08:40:11.498Z,100150.80
2022-08-07T08:43:42.412Z,100155.60
2022-08-07T08:46:45.918Z,100156.60
2022-08-07T08:50:05.306Z,100155.80
2022-08-07T08:53:04.165Z,100155.60
2022-08-07T08:56:08.332Z,100149.80
2022-08-07T08:58:44.330Z,100154.60
2022-08-07T09:01:40.194Z,100150.80
2022-08-07T09:04:33.650Z,100149.00
2022-08-07T09:07:27.121Z,100152.00
2022-08-07T09:10:15.535Z,100151.40
2022-08-07T09:13:37.023Z,100155.20
2022-08-07T09:16:30.179Z,100149.40
2022-08-07T09:19:51.355Z,100150.60
2022-08-07T09:24:30.559Z,100145.20
2022-08-07T09:26:02.085Z,100145.00
2022-08-07T09:30:04.151Z,100140.60
2022-08-07T09:31:52.350Z,100139.80
2022-08-07T09:34:33.100Z,100133.60
2022-08-07T09:37:13.955Z,100135.20
2022-08-07T09:40:06.239Z,100130.60
2022-08-07T09:43:01.241Z,100132.60
2022-08-07T09:47:51.947Z,100135.80
2022-08-07T09:50:01.994Z,100131.60
2022-08-07T09:52:34.081Z,100127.80
2022-08-07T09:55:29.252Z,100128.20
2022-08-07T09:59:07.524Z,100130.40
2022-08-07T10:02:36.762Z,100127.00
2022-08-07T10:06:00.188Z,100117.40
2022-08-07T10:09:15.605Z,100118.00
2022-08-07T10:12:53.288Z,100109.00
2022-08-07T10:15:48.433Z,100114.20
2022-08-07T10:18:35.389Z,100109.60
2022-08-07T10:22:12.592Z,100111.00
2022-08-07T10:24:46.851Z,100108.80
2022-08-07T10:27:46.406Z,100102.00
2022-08-07T10:30:57.423Z,100100.60
2022-08-07T10:34:05.625Z,100096.20
2022-08-07T10:37:04.137Z,100092.20
2022-08-07T10:40:15.385Z,100097.60
2022-08-07T10:43:34.631Z,100088.80
2022-08-07T10:46:22.550Z,100093.20
2022-08-07T10:49:15.373Z,100083.00
2022-08-07T10:52:13.402Z,100082.00
2022-08-07T10:55:20.939Z,100068.00
2022-08-07T10:58:59.524Z,100066.00
2022-08-07T11:01:52.159Z,100055.40
2022-08-07T11:05:24.101Z,100051.40
2022-08-07T11:08:23.584Z,100052.60
2022-08-07T11:11:28.069Z,100056.60
2022-08-07T11:14:45.418Z,100061.40
2022-08-07T11:17:49.005Z,100060.80
2022-08-07T11:20:24.539Z,100055.00
2022-08-07T11:23:57.188Z,100057.00
2022-08-07T11:26:38.492Z,100058.00
2022-08-07T11:29:42.153Z,100052.20
2022-08-07T11:32:44.490Z,100052.60
2022-08-07T11:35:26.847Z,100052.00
2022-08-07T11:38:34.088Z,100054.40
2022-08-07T11:41:22.112Z,100047.20
2022-08-07T11:44:52.592Z,100047.20
2022-08-07T11:48:02.678Z,100051.60
2022-08-07T11:51:09.034Z,100044.20
2022-08-07T11:54:25.408Z,100049.40
2022-08-07T11:57:14.210Z,100044.00
2022-08-07T12:00:12.127Z,100043.00
2022-08-07T12:03:45.675Z,100042.40
2022-08-07T12:06:39.506Z,100036.60
2022-08-07T12:09:26.564Z,100036.40
2022-08-07T12:12:13.196Z,100034.40
2022-08-07T12:15:03.166Z,100022.80
2022-08-07T12:17:59.386Z,100018.80
2022-08-07T12:21:07.727Z,100020.20
2022-08-07T12:24:06.941Z,100014.60
2022-08-07T12:26:59.459Z,100012.00
2022-08-07T12:29:55.244Z,100014.80
2022-08-07T12:32:39.894Z,100015.00
2022-08-07T12:35:12.753Z,100014.40
2022-08-07T12:38:11.387Z,100007.20
2022-08-07T12:40:47.467Z,100007.80
2022-08-07T12:44:01.533Z,100009.40
2022-08-07T12:46:43.236Z,100013.40
2022-08-07T12:49:48.467Z,100012.20
2022-08-07T12:52:35.821Z,100007.40
2022-08-07T12:55:17.533Z,99996.00
2022-08-07T12:58:02.018Z,99995.60
2022-08-07T13:00:50.678Z,99991.00
2022-08-07T13:04:32.586Z,99993.80
2022-08-07T13:08:13.988Z,99986.40
2022-08-07T13:12:03.278Z,99988.00
2022-08-07T13:15:00.713Z,99995.60
2022-08-07T13:17:59.359Z,99992.40
2022-08-07T13:21:13.013Z,99987.80
2022-08-07T13:24:25.593Z,99979.60
2022-08-07T13:27:23.137Z,99984.20
2022-08-07T13:30:19.411Z,99982.20
2022-08-07T13:34:30.523Z,99982.00
2022-08-07T13:36:48.369Z,99981.80
2022-08-07T13:40:35.996Z,99979.60
2022-08-07T13:43:12.086Z,99983.40
2022-08-07T13:46:21.851Z,99972.20
2022-08-07T13:48:59.615Z,99974.40
2022-08-07T13:52:22.619Z,99970.60
2022-08-07T13:54:33.449Z,99971.80
2022-08-07T13:57:11.154Z,99964.40
2022-08-07T13:59:55.127Z,99966.40
2022-08-07T14:02:29.750Z,99958.00
2022-08-07T14:05:15.868Z,99961.20
2022-08-07T14:08:01.022Z,99955.20
2022-08-07T14:10:41.969Z,99954.60
2022-08-07T14:13:16.624Z,99952.60
2022-08-07T14:15:56.881Z,99947.40
2022-08-07T14:20:43.774Z,99940.80
2022-08-07T14:22:40.437Z,99941.20
2022-08-07T14:25:14.958Z,99945.80
2022-08-07T14:28:11.456Z,99943.20
2022-08-07T14:30:52.342Z,99939.00
2022-08-07T14:33:25.126Z,99942.60
2022-08-07T14:36:17.451Z,99936.20
2022-08-07T14:38:50.462Z,99936.40
2022-08-07T14:41:34.102Z,99931.40
2022-08-07T14:44:29.945Z,99936.20
2022-08-07T14:47:14.767Z,99928.80
2022-08-07T14:49:58.123Z,99929.20
2022-08-07T14:52:35.449Z,99926.00
2022-08-07T14:55:06.170Z,99926.00
2022-08-07T14:57:54.689Z,99925.00
2022-08-07T15:00:48.873Z,99924.40
2022-08-07T15:03:52.561Z,99923.60
2022-08-07T15:06:25.954Z,99921.80
2022-08-07T15:09:58.908Z,99924.20
2022-08-07T15:12:26.308Z,99923.80
2022-08-07T15:15:17.419Z,99915.60
2022-08-07T15:18:03.468Z,99912.00
2022-08-07T15:20:54.943Z,99910.00
2022-08-07T15:26:45.607Z,99906.60
2022-08-07T15:30:10.282Z,99905.40
2022-08-07T15:32:15.534Z,99900.00
2022-08-07T15:35:07.598Z,99894.80
2022-08-07T15:38:04.566Z,99901.20
2022-08-07T15:40:34.236Z,99900.00
2022-08-07T15:43:33.249Z,99897.80
2022-08-07T15:49:14.450Z,99896.80
2022-08-07T15:52:01.862Z,99896.40
2022-08-07T15:54:40.623Z,99897.00
2022-08-07T15:57:39.257Z,99900.60
2022-08-07T16:00:31.732Z,99898.60
2022-08-07T16:03:47.355Z,99904.60
2022-08-07T16:06:57.708Z,99897.40
2022-08-07T16:09:41.855Z,99891.20
2022-08-07T16:13:01.294Z,99884.80
2022-08-07T16:16:47.629Z,99886.20
2022-08-07T16:19:58.760Z,99891.80
2022-08-07T16:23:05.511Z,99885.20
2022-08-07T16:26:37.773Z,99884.20
2022-08-07T16:30:11.428Z,99885.40
2022-08-07T16:34:02.756Z,99892.40
2022-08-07T16:37:01.781Z,99893.80
2022-08-07T16:40:22.998Z,99898.20
2022-08-07T16:44:06.075Z,99900.00
2022-08-07T16:47:56.626Z,99894.60
2022-08-07T16:51:21.575Z,99888.20
2022-08-07T16:54:32.574Z,99894.00
2022-08-07T16:58:03.540Z,99893.80
2022-08-07T17:00:29.784Z,99896.00
2022-08-07T17:04:04.499Z,99888.80
2022-08-07T17:07:04.075Z,99904.00
2022-08-07T17:10:09.294Z,99907.00
2022-08-07T17:13:16.404Z,99912.60
2022-08-07T17:16:33.557Z,99912.80
2022-08-07T17:19:15.829Z,99920.20
2022-08-07T17:21:53.435Z,99920.40
2022-08-07T17:24:52.111Z,99922.40
2022-08-07T17:27:55.924Z,99924.40
2022-08-07T17:31:16.428Z,99925.60
2022-08-07T17:34:18.337Z,99928.00
2022-08-07T17:37:14.387Z,99925.20
2022-08-07T17:40:17.656Z,99930.80
2022-08-07T17:43:14.906Z,99927.80
2022-08-07T17:46:18.725Z,99932.20
2022-08-07T17:49:54.050Z,99929.60
2022-08-07T17:52:50.145Z,99933.20
2022-08-07T17:56:01.393Z,99932.20
2022-08-07T17:58:47.070Z,99939.00
2022-08-07T18:01:37.333Z,99933.40
2022-08-07T18:04:41.548Z,99933.60
2022-08-07T18:07:24.631Z,99935.40
2022-08-07T19:00:54.932Z,99979.80
2022-08-07T19:03:57.468Z,99982.00
2022-08-07T19:07:01.498Z,99976.80
2022-08-07T19:10:18.202Z,99977.00
2022-08-07T19:13:22.986Z,99979.80
2022-08-07T19:17:01.246Z,99976.20
2022-08-07T19:19:38.574Z,99975.80
2022-08-07T19:22:19.133Z,99973.80
2022-08-07T19:25:05.698Z,99975.40
2022-08-07T19:28:30.838Z,99976.80
2022-08-07T19:31:04.299Z,99976.00
2022-08-07T19:33:34.968Z,99970.40
2022-08-07T19:36:08.876Z,99970.60
2022-08-07T19:38:52.766Z,99974.80
2022-08-07T19:41:44.974Z,99971.80
2022-08-07T19:44:21.255Z,99970.20
2022-08-07T19:46:57.689Z,99973.40
2022-08-07T19:49:58.074Z,99969.40
2022-08-07T19:52:02.922Z,99971.40
2022-08-07T19:54:44.558Z,99972.60
2022-08-07T19:58:01.396Z,99981.60
2022-08-07T20:00:29.284Z,99981.80
2022-08-07T20:03:35.209Z,99978.20
2022-08-07T20:06:06.268Z,99981.60
2022-08-07T20:08:50.692Z,99981.20
2022-08-07T20:11:34.314Z,99978.00
2022-08-07T20:14:23.231Z,99975.00
2022-08-07T20:17:04.117Z,99979.80
2022-08-07T20:19:48.308Z,99975.40
2022-08-07T20:22:34.159Z,99978.20
2022-08-07T20:25:12.794Z,99977.40
2022-08-07T20:27:58.398Z,99985.00
2022-08-07T20:30:35.360Z,99983.00
2022-08-07T20:33:09.182Z,99980.40
2022-08-07T20:36:03.555Z,99974.00
2022-08-07T20:38:34.239Z,99975.00
2022-08-07T20:41:03.669Z,99976.40
2022-08-07T20:43:34.755Z,99969.20
2022-08-07T20:46:25.874Z,99968.00
2022-08-07T20:49:55.200Z,99969.60
2022-08-07T20:51:48.906Z,99971.00
2022-08-07T20:54:29.812Z,99969.40
2022-08-07T20:57:05.344Z,99969.80
2022-08-07T21:00:06.902Z,99967.40
2022-08-07T21:02:54.165Z,99974.80
2022-08-07T21:06:21.654Z,99980.40
2022-08-07T21:09:13.662Z,99981.00
2022-08-07T21:11:50.216Z,99978.60
2022-08-07T21:14:32.884Z,99972.80
2022-08-07T21:18:02.150Z,99967.60
2022-08-07T21:20:10.212Z,99963.80
2022-08-07T21:22:53.390Z,99963.40
2022-08-07T21:25:30.541Z,99968.80
2022-08-07T21:28:48.850Z,99972.00
2022-08-07T21:32:47.114Z,99966.20
2022-08-07T21:35:59.945Z,99964.00
2022-08-07T21:38:44.587Z,99967.80
2022-08-07T21:42:00.631Z,99970.00
2022-08-07T21:44:57.244Z,99964.20
2022-08-07T21:47:50.221Z,99969.60
2022-08-07T21:50:26.259Z,99966.80
2022-08-07T21:53:17.744Z,99969.80
2022-08-07T21:56:35.839Z,99967.20
2022-08-07T22:00:03.554Z,99961.40
2022-08-07T22:02:45.292Z,99960.60
2022-08-07T22:05:45.160Z,99960.40
2022-08-07T22:08:13.136Z,99964.00
2022-08-07T22:10:42.858Z,99968.60
2022-08-07T22:13:16.335Z,99971.40
2022-08-07T22:16:43.244Z,99973.00
2022-08-07T22:19:30.478Z,99976.20
2022-08-07T22:22:30.426Z,99974.00
2022-08-07T22:25:08.358Z,99970.40
2022-08-07T22:28:07.675Z,99973.80
2022-08-07T22:31:45.684Z,99979.60
2022-08-07T22:34:52.949Z,99975.60
2022-08-07T22:38:05.707Z,99969.00
2022-08-07T22:41:03.882Z,99968.80
2022-08-07T22:43:56.424Z,99968.00
2022-08-07T22:47:15.076Z,99971.60
2022-08-07T22:50:33.702Z,99972.40
2022-08-07T22:54:05.503Z,99970.00
2022-08-07T22:57:07.319Z,99975.40
2022-08-07T22:59:58.171Z,99973.00
2022-08-07T23:02:54.228Z,99974.60
2022-08-07T23:06:08.180Z,99978.80
2022-08-07T23:10:00.868Z,99978.00
2022-08-07T23:13:00.164Z,99979.40
2022-08-07T23:16:06.280Z,99977.40
2022-08-07T23:19:51.834Z,99979.40
2022-08-07T23:22:57.518Z,99980.00
2022-08-07T23:26:06.866Z,99980.00
2022-08-07T23:29:16.553Z,99977.40
2022-08-07T23:34:20.775Z,99977.00
2022-08-07T23:35:25.789Z,99977.20
2022-08-07T23:38:36.819Z,99975.00
2022-08-07T23:41:33.323Z,99976.20
2022-08-07T23:44:29.625Z,99971.60
2022-08-07T23:47:29.869Z,99974.00
2022-08-07T23:50:54.632Z,99972.20
2022-08-07T23:53:50.954Z,99970.80
2022-08-07T23:56:35.181Z,99970.20
